Terminal Aerodrome Forecast
Issued by NWS

Home | Current Version | Previous Version | Text Only | Print | Product List | Glossary On
Versions: 1 2 3 4 5 6 7 8 9 10 11 12 13 14 15 16 17 18 19
000
FTUS43 KAPX 231733
TAFTVC
TAF
KTVC 231733Z 2318/2418 03006KT P6SM FEW060
     FM240100 VRB03KT P6SM FEW200
     FM240500 14004KT P6SM BKN150
     FM240800 17006KT P6SM SHRA VCTS OVC050CB
     FM241500 21010G16KT P6SM BKN060=

USA.gov is the U.S. government's official web portal to all federal, state and local government web resources and services.